Time;durP1;ratioP1;P1;durP2;ratioP2;P2;SDS_P1;SDS_P2;PMS_P1;PMS_P2;Temp;Humidity;BMP_temperature;BMP_pressure;BME280_temperature;BME280_humidity;BME280_pressure;Samples;Min_cycle;Max_cycle;Signal;HPM_P1;HPM_P2
2022/01/25 00:10:01;;;;;;;49.30;27.00;;;0.90;99.90;;;;;;6315068;22;20151;-84
2022/01/25 00:29:09;;;;;;;58.73;29.90;;;0.90;99.90;;;;;;6312796;22;20143;-84
2022/01/25 00:31:31;;;;;;;57.63;29.30;;;1.00;99.90;;;;;;6312650;22;20229;-84
2022/01/25 00:33:57;;;;;;;60.60;31.00;;;0.90;99.90;;;;;;6312950;22;20151;-83
2022/01/25 00:36:25;;;;;;;58.23;29.97;;;0.90;99.90;;;;;;6312670;22;20189;-83
2022/01/25 00:38:52;;;;;;;56.53;28.57;;;0.90;99.90;;;;;;6312665;22;20148;-84
2022/01/25 00:41:19;;;;;;;53.47;29.07;;;0.90;99.90;;;;;;6311482;22;20201;-83
2022/01/25 00:43:46;;;;;;;53.80;28.97;;;1.00;99.90;;;;;;6312293;22;20148;-83
2022/01/25 00:46:13;;;;;;;55.33;28.93;;;1.10;99.90;;;;;;6312038;22;20226;-83
2022/01/25 00:56:19;;;;;;;57.87;28.17;;;1.10;99.90;;;;;;6312093;22;20183;-82
2022/01/25 00:58:44;;;;;;;57.13;29.77;;;1.00;99.90;;;;;;6323014;22;20123;-83
2022/01/25 01:01:10;;;;;;;63.87;31.33;;;0.90;99.90;;;;;;6333292;22;20162;-83
2022/01/25 01:03:36;;;;;;;54.87;28.93;;;0.90;99.90;;;;;;6334465;22;20148;-83
2022/01/25 01:06:03;;;;;;;57.73;30.17;;;0.90;99.90;;;;;;6317753;22;20175;-83
2022/01/25 01:08:29;;;;;;;59.83;29.87;;;0.90;99.90;;;;;;6316931;22;20144;-83
2022/01/25 01:10:57;;;;;;;58.87;30.03;;;0.90;99.90;;;;;;6314516;22;20152;-84
2022/01/25 01:16:34;;;;;;;60.57;30.53;;;0.80;99.90;;;;;;6316501;22;20183;-84
2022/01/25 01:43:35;;;;;;;54.47;27.47;;;1.00;99.90;;;;;;6318825;22;20158;-83
2022/01/25 01:48:52;;;;;;;49.70;27.47;;;0.70;99.90;;;;;;6328229;22;20143;-83
2022/01/25 01:51:27;;;;;;;57.37;29.53;;;0.50;99.90;;;;;;6317362;22;20152;-83
2022/01/25 01:54:10;;;;;;;58.93;28.60;;;0.50;99.90;;;;;;6317913;22;20127;-83
2022/01/25 01:56:37;;;;;;;58.97;29.80;;;0.50;99.90;;;;;;6315881;22;20179;-83
2022/01/25 01:59:06;;;;;;;55.47;28.67;;;0.60;99.90;;;;;;6315613;22;20156;-83
2022/01/25 02:01:33;;;;;;;61.23;29.47;;;0.60;99.90;;;;;;6315518;22;20198;-83
2022/01/25 02:04:01;;;;;;;61.13;31.30;;;0.50;99.90;;;;;;6315287;22;20147;-83
2022/01/25 02:06:27;;;;;;;62.50;30.23;;;0.40;99.90;;;;;;6314992;22;20258;-84
2022/01/25 02:08:53;;;;;;;62.93;31.53;;;0.40;99.90;;;;;;6316978;22;20479;-83
2022/01/25 02:11:20;;;;;;;59.90;31.53;;;0.30;99.90;;;;;;6315710;22;20182;-83
2022/01/25 02:13:46;;;;;;;64.30;31.43;;;0.40;99.90;;;;;;6315423;22;20222;-83
2022/01/25 02:16:36;;;;;;;59.50;29.13;;;0.50;99.90;;;;;;6314218;22;20188;-83
2022/01/25 02:24:31;;;;;;;61.97;30.20;;;0.60;99.90;;;;;;6316103;22;20528;-83
2022/01/25 02:26:57;;;;;;;54.70;28.37;;;0.70;99.90;;;;;;6315478;22;20159;-83
2022/01/25 02:29:24;;;;;;;57.10;28.87;;;0.60;99.90;;;;;;6316501;22;20536;-83
2022/01/25 02:31:51;;;;;;;50.77;26.27;;;0.70;99.90;;;;;;6315985;22;20152;-83
2022/01/25 02:34:17;;;;;;;48.60;26.33;;;0.60;99.90;;;;;;6315535;22;20147;-83
2022/01/25 02:36:42;;;;;;;57.43;28.73;;;0.50;99.90;;;;;;6313599;22;20631;-82
2022/01/25 02:39:08;;;;;;;57.77;29.37;;;0.50;99.90;;;;;;6315630;22;20148;-83
2022/01/25 02:41:35;;;;;;;58.07;29.57;;;0.40;99.90;;;;;;6309677;22;20185;-85
2022/01/25 02:44:28;;;;;;;62.73;31.97;;;1.30;99.90;;;;;;6310647;22;20632;-84
2022/01/25 02:49:35;;;;;;;61.47;30.70;;;0.40;99.90;;;;;;6324892;22;20139;-84
2022/01/25 02:52:14;;;;;;;61.73;30.93;;;0.40;99.90;;;;;;6312903;22;20171;-84
2022/01/25 02:54:41;;;;;;;61.67;29.77;;;0.40;99.90;;;;;;6312811;22;20176;-84
2022/01/25 02:57:10;;;;;;;58.83;30.10;;;0.40;99.90;;;;;;6311922;22;20205;-84
2022/01/25 02:59:35;;;;;;;64.37;31.07;;;0.50;99.90;;;;;;6314473;22;20151;-84
2022/01/25 03:02:07;;;;;;;65.80;31.20;;;1.10;99.90;;;;;;6313871;22;20159;-84
2022/01/25 03:04:39;;;;;;;61.27;30.90;;;1.00;99.90;;;;;;6312688;22;20136;-84
2022/01/25 03:07:14;;;;;;;64.63;30.47;;;0.90;99.90;;;;;;6312631;22;20144;-84
2022/01/25 03:09:40;;;;;;;60.30;29.37;;;1.30;99.90;;;;;;6312241;22;20507;-84
2022/01/25 03:12:17;;;;;;;63.13;30.63;;;1.20;99.90;;;;;;6306642;22;20328;-84
2022/01/25 03:15:00;;;;;;;63.37;30.93;;;0.10;99.90;;;;;;6310310;22;20180;-84
2022/01/25 03:17:30;;;;;;;58.50;30.00;;;0.50;99.90;;;;;;6311380;22;20142;-83
2022/01/25 03:20:06;;;;;;;57.17;28.73;;;0.50;99.90;;;;;;6310973;22;20182;-83
2022/01/25 03:23:05;;;;;;;64.47;29.40;;;1.20;99.90;;;;;;6311000;22;20192;-83
2022/01/25 03:25:42;;;;;;;58.93;29.17;;;0.30;99.90;;;;;;6272428;22;20230;-84
2022/01/25 03:28:11;;;;;;;62.97;29.33;;;0.30;99.90;;;;;;6310841;22;20155;-83
2022/01/25 03:30:39;;;;;;;61.90;28.63;;;0.20;99.90;;;;;;6311998;22;20151;-84
2022/01/25 03:33:05;;;;;;;63.27;28.30;;;0.20;99.90;;;;;;6310990;22;20169;-84
2022/01/25 03:35:46;;;;;;;65.90;29.60;;;0.00;99.90;;;;;;6311326;22;20204;-83
2022/01/25 03:38:15;;;;;;;63.00;28.00;;;0.30;99.90;;;;;;6312181;22;20124;-85
2022/01/25 03:43:28;;;;;;;61.07;29.10;;;0.40;99.90;;;;;;6317120;22;20197;-83
2022/01/25 03:51:56;;;;;;;69.27;31.33;;;0.30;99.90;;;;;;6312171;22;20147;-84
2022/01/25 03:54:22;;;;;;;79.07;32.67;;;0.30;99.90;;;;;;6312373;22;20470;-83
2022/01/25 03:56:57;;;;;;;74.83;31.73;;;0.80;99.90;;;;;;6311036;22;20178;-84
2022/01/25 03:59:30;;;;;;;66.07;30.97;;;0.70;99.90;;;;;;6310462;22;20189;-84
2022/01/25 04:01:56;;;;;;;63.07;30.43;;;0.70;99.90;;;;;;6311822;22;20174;-84
2022/01/25 04:04:31;;;;;;;72.37;31.47;;;0.70;99.90;;;;;;6310597;22;20139;-84
2022/01/25 04:06:57;;;;;;;66.63;30.43;;;0.40;99.90;;;;;;6310642;22;20148;-83
2022/01/25 04:09:38;;;;;;;68.73;31.33;;;0.40;99.90;;;;;;6311868;22;20171;-82
2022/01/25 04:12:08;;;;;;;68.40;29.60;;;0.50;99.90;;;;;;6310535;22;20190;-85
2022/01/25 04:14:36;;;;;;;67.57;30.17;;;0.50;99.90;;;;;;6310701;22;20565;-84
2022/01/25 04:17:09;;;;;;;65.67;29.73;;;0.90;99.90;;;;;;6308872;22;20534;-84
2022/01/25 04:27:19;;;;;;;70.47;32.03;;;0.40;99.90;;;;;;6310932;22;20143;-85
2022/01/25 04:30:00;;;;;;;67.37;31.17;;;0.40;99.90;;;;;;6310088;22;20167;-84
2022/01/25 04:32:35;;;;;;;67.50;29.53;;;1.00;99.90;;;;;;6310091;22;20628;-82
2022/01/25 04:35:28;;;;;;;70.60;30.97;;;0.90;99.90;;;;;;6313885;22;20178;-86
2022/01/25 04:54:18;;;;;;;72.37;31.03;;;0.30;99.90;;;;;;6316254;22;20151;-85
2022/01/25 05:01:42;;;;;;;71.43;31.87;;;0.30;99.90;;;;;;6315572;22;20171;-84
2022/01/25 05:04:13;;;;;;;71.00;31.43;;;0.30;99.90;;;;;;6315425;22;20163;-84
2022/01/25 05:06:41;;;;;;;70.80;32.33;;;0.30;99.90;;;;;;6314087;22;20596;-84
2022/01/25 05:09:10;;;;;;;68.33;31.67;;;0.30;99.90;;;;;;6313034;22;20144;-83
2022/01/25 05:11:46;;;;;;;69.13;32.63;;;0.30;99.90;;;;;;6310798;22;20171;-84
2022/01/25 05:14:25;;;;;;;67.80;30.97;;;0.40;99.90;;;;;;6312719;22;20140;-83
2022/01/25 05:17:00;;;;;;;86.90;43.80;;;0.50;99.90;;;;;;6312906;22;20158;-83
2022/01/25 05:24:41;;;;;;;68.17;31.27;;;0.30;99.90;;;;;;6327122;22;20139;-84
2022/01/25 05:27:09;;;;;;;67.17;31.00;;;0.30;99.90;;;;;;6313442;22;20163;-84
2022/01/25 05:29:35;;;;;;;71.30;30.77;;;0.40;99.90;;;;;;6318042;22;20592;-84
2022/01/25 05:32:01;;;;;;;62.60;29.87;;;0.40;99.90;;;;;;6312133;22;20172;-83
2022/01/25 05:34:29;;;;;;;64.23;29.63;;;0.30;99.90;;;;;;6317422;22;20195;-83
2022/01/25 05:36:58;;;;;;;60.87;28.80;;;0.30;99.90;;;;;;6314806;22;20151;-82
2022/01/25 05:39:34;;;;;;;67.17;31.10;;;0.20;99.90;;;;;;6314542;22;20152;-84
2022/01/25 05:47:14;;;;;;;69.70;30.33;;;0.10;99.90;;;;;;6312621;22;20151;-84
2022/01/25 05:49:41;;;;;;;73.17;30.60;;;0.10;99.90;;;;;;6313742;22;20222;-85
2022/01/25 05:52:09;;;;;;;76.13;31.90;;;0.10;99.90;;;;;;6312017;22;20186;-85
2022/01/25 05:54:35;;;;;;;69.23;31.07;;;0.10;99.90;;;;;;6314316;22;20148;-85
2022/01/25 05:57:01;;;;;;;69.20;31.53;;;0.10;99.90;;;;;;6313607;22;20147;-84
2022/01/25 05:59:30;;;;;;;69.77;30.03;;;0.20;99.90;;;;;;6313073;22;20147;-84
2022/01/25 06:02:03;;;;;;;70.50;32.20;;;0.20;99.90;;;;;;6316907;22;20178;-83
2022/01/25 06:04:29;;;;;;;71.13;30.33;;;0.10;99.90;;;;;;6312456;22;20136;-84
2022/01/25 06:06:55;;;;;;;73.63;32.27;;;0.10;99.90;;;;;;6312265;22;20149;-84
2022/01/25 06:09:24;;;;;;;73.03;34.13;;;0.10;99.90;;;;;;6312738;22;20140;-84
2022/01/25 06:11:51;;;;;;;70.87;30.50;;;0.00;99.90;;;;;;6311832;22;20489;-84
2022/01/25 06:14:16;;;;;;;77.10;31.83;;;0.00;99.90;;;;;;6312855;22;20165;-84
2022/01/25 06:16:42;;;;;;;77.63;32.80;;;0.00;99.90;;;;;;6312847;22;20151;-84
2022/01/25 06:19:07;;;;;;;74.73;32.23;;;0.10;99.90;;;;;;6310930;22;20148;-83
2022/01/25 06:21:33;;;;;;;74.27;31.27;;;0.10;99.90;;;;;;6311808;22;20206;-85
2022/01/25 06:23:59;;;;;;;74.43;32.00;;;0.00;99.90;;;;;;6312789;22;20224;-84
2022/01/25 06:26:27;;;;;;;74.80;30.93;;;0.00;99.90;;;;;;6312854;22;20525;-83
2022/01/25 06:28:53;;;;;;;73.10;31.40;;;0.60;99.90;;;;;;6310607;22;20154;-83
2022/01/25 06:31:19;;;;;;;75.63;32.83;;;0.00;99.90;;;;;;6311744;22;20143;-82
2022/01/25 06:33:46;;;;;;;75.33;31.80;;;0.00;99.90;;;;;;6309645;22;20485;-85
2022/01/25 06:36:12;;;;;;;74.50;30.67;;;-0.10;99.90;;;;;;6312720;22;20178;-84
2022/01/25 06:38:38;;;;;;;71.63;31.43;;;-0.10;99.90;;;;;;6312804;22;20154;-83
2022/01/25 06:41:04;;;;;;;80.50;33.20;;;0.20;99.90;;;;;;6313577;22;20175;-83
2022/01/25 06:43:30;;;;;;;79.53;33.07;;;0.00;99.90;;;;;;6310792;22;20529;-83
2022/01/25 06:46:00;;;;;;;79.30;32.63;;;0.00;99.90;;;;;;6313160;22;20158;-83
2022/01/25 06:48:26;;;;;;;71.77;31.20;;;0.00;99.90;;;;;;6311802;22;20510;-82
2022/01/25 06:50:52;;;;;;;83.53;34.23;;;0.00;99.90;;;;;;6310150;22;20170;-83
2022/01/25 06:53:18;;;;;;;80.27;32.80;;;0.00;99.90;;;;;;6310614;22;20615;-83
2022/01/25 06:55:43;;;;;;;80.77;34.47;;;0.00;99.90;;;;;;6312772;22;20232;-83
2022/01/25 06:58:10;;;;;;;69.87;31.27;;;0.00;99.90;;;;;;6310075;22;20258;-81
2022/01/25 07:00:36;;;;;;;83.23;33.83;;;-0.10;99.90;;;;;;6312353;22;20147;-82
2022/01/25 07:03:01;;;;;;;84.17;33.90;;;-0.10;99.90;;;;;;6310642;22;20171;-82
2022/01/25 07:05:27;;;;;;;85.63;35.17;;;-0.10;99.90;;;;;;6312337;22;20151;-83
2022/01/25 07:07:53;;;;;;;79.73;34.13;;;0.20;99.90;;;;;;6310232;22;20584;-83
2022/01/25 07:10:20;;;;;;;80.47;33.00;;;-0.20;99.90;;;;;;6311545;22;20152;-83
2022/01/25 07:12:46;;;;;;;77.80;33.00;;;-0.10;99.90;;;;;;6310576;22;20179;-83
2022/01/25 07:15:14;;;;;;;84.70;33.33;;;-0.10;99.90;;;;;;6308883;22;20522;-82
2022/01/25 07:17:40;;;;;;;88.93;35.10;;;0.10;99.90;;;;;;6309500;22;20144;-82
2022/01/25 07:20:07;;;;;;;82.73;33.17;;;-0.10;99.90;;;;;;6311580;22;20291;-84
2022/01/25 07:22:34;;;;;;;89.67;35.03;;;0.00;99.90;;;;;;6310328;22;20173;-83
2022/01/25 07:25:01;;;;;;;89.93;36.40;;;0.00;99.90;;;;;;6309690;22;20231;-83
2022/01/25 07:27:27;;;;;;;90.77;36.73;;;0.00;99.90;;;;;;6311233;22;20240;-84
2022/01/25 07:29:52;;;;;;;89.90;36.60;;;0.00;99.90;;;;;;6309681;22;20213;-84
2022/01/25 07:32:18;;;;;;;87.23;35.83;;;0.10;99.90;;;;;;6310415;22;20548;-80
2022/01/25 07:34:44;;;;;;;80.50;34.53;;;0.10;99.90;;;;;;6311209;22;20171;-84
2022/01/25 07:37:10;;;;;;;88.80;35.67;;;0.10;99.90;;;;;;6309732;22;20151;-82
2022/01/25 07:39:35;;;;;;;84.70;36.60;;;0.20;99.90;;;;;;6310770;22;20163;-81
2022/01/25 07:42:04;;;;;;;89.80;34.87;;;0.20;99.90;;;;;;6310912;22;20185;-83
2022/01/25 07:44:33;;;;;;;77.37;33.90;;;0.20;99.90;;;;;;6310836;22;20179;-83
2022/01/25 07:47:00;;;;;;;84.63;35.97;;;0.20;99.90;;;;;;6309156;22;20144;-83
2022/01/25 07:49:30;;;;;;;87.40;35.40;;;0.10;99.90;;;;;;6311293;22;20147;-83
2022/01/25 07:51:57;;;;;;;87.30;35.57;;;0.10;99.90;;;;;;6309888;22;20182;-83
2022/01/25 07:54:23;;;;;;;85.03;35.87;;;0.10;99.90;;;;;;6310710;22;20526;-84
2022/01/25 07:56:49;;;;;;;88.70;36.80;;;0.10;99.90;;;;;;6311433;22;20140;-83
2022/01/25 07:59:15;;;;;;;90.87;35.53;;;0.10;99.90;;;;;;6310068;22;20155;-84
2022/01/25 08:01:41;;;;;;;90.83;35.47;;;0.10;99.90;;;;;;6311086;22;20166;-83
2022/01/25 08:04:13;;;;;;;91.77;36.97;;;0.10;99.90;;;;;;6312104;22;20485;-84
2022/01/25 08:06:39;;;;;;;91.93;35.80;;;0.30;99.90;;;;;;6313159;22;20146;-84
2022/01/25 08:09:07;;;;;;;92.17;36.60;;;0.00;99.90;;;;;;6310987;22;20148;-83
2022/01/25 08:11:36;;;;;;;88.60;35.67;;;0.00;99.90;;;;;;6312799;22;20151;-84
2022/01/25 08:14:13;;;;;;;96.87;37.07;;;0.00;99.90;;;;;;6312736;22;20193;-84
2022/01/25 08:16:41;;;;;;;98.40;38.13;;;0.00;99.90;;;;;;6310467;22;20174;-83
2022/01/25 08:19:07;;;;;;;103.03;39.37;;;0.00;99.90;;;;;;6312146;22;20140;-83
2022/01/25 08:21:33;;;;;;;95.93;38.70;;;0.10;99.90;;;;;;6312418;22;20154;-84
2022/01/25 08:23:58;;;;;;;100.10;38.37;;;0.00;99.90;;;;;;6309679;22;20593;-84
2022/01/25 08:26:24;;;;;;;100.97;39.70;;;0.30;99.90;;;;;;6312209;22;20606;-83
2022/01/25 08:28:49;;;;;;;101.17;39.47;;;0.10;99.90;;;;;;6311405;22;20581;-83
2022/01/25 08:31:15;;;;;;;87.03;36.47;;;0.10;99.90;;;;;;6312274;22;20158;-83
2022/01/25 08:33:41;;;;;;;90.57;37.30;;;0.40;99.90;;;;;;6311678;22;20152;-83
2022/01/25 08:36:07;;;;;;;94.33;38.63;;;0.30;99.90;;;;;;6311851;22;20171;-84
2022/01/25 08:38:32;;;;;;;93.67;37.47;;;0.30;99.90;;;;;;6312160;22;20151;-82
2022/01/25 08:40:58;;;;;;;94.00;38.13;;;0.30;99.90;;;;;;6309984;22;20148;-83
2022/01/25 08:43:24;;;;;;;88.13;37.13;;;0.30;99.90;;;;;;6310841;22;20209;-83
2022/01/25 08:45:50;;;;;;;99.10;38.63;;;0.20;99.90;;;;;;6311889;22;20148;-82
2022/01/25 08:48:16;;;;;;;97.13;38.90;;;0.20;99.90;;;;;;6309584;22;20165;-83
2022/01/25 08:50:42;;;;;;;96.93;39.23;;;0.10;99.90;;;;;;6311779;22;20555;-83
2022/01/25 08:53:09;;;;;;;92.73;38.43;;;0.20;99.90;;;;;;6311283;22;20253;-83
2022/01/25 08:55:35;;;;;;;96.30;38.37;;;0.30;99.90;;;;;;6315942;22;20193;-84
2022/01/25 08:58:01;;;;;;;90.00;38.27;;;0.20;99.90;;;;;;6313025;22;20167;-84
2022/01/25 09:00:27;;;;;;;88.83;37.00;;;0.30;99.90;;;;;;6314612;22;20485;-84
2022/01/25 09:02:53;;;;;;;92.50;38.60;;;0.60;99.90;;;;;;6314341;22;20167;-83
2022/01/25 09:05:19;;;;;;;94.80;38.27;;;0.30;99.90;;;;;;6315399;22;20160;-85
2022/01/25 09:07:45;;;;;;;93.03;37.37;;;0.30;99.90;;;;;;6314066;22;20239;-84
2022/01/25 09:10:11;;;;;;;87.23;36.57;;;0.40;99.90;;;;;;6316639;22;20182;-84
2022/01/25 09:12:36;;;;;;;88.80;37.00;;;0.50;99.90;;;;;;6313683;22;20175;-84
2022/01/25 09:15:04;;;;;;;94.30;37.67;;;0.40;99.90;;;;;;6316084;22;20240;-85
2022/01/25 09:17:30;;;;;;;88.27;37.37;;;0.40;99.90;;;;;;6315911;22;20144;-84
2022/01/25 09:19:55;;;;;;;86.10;36.83;;;0.40;99.90;;;;;;6317101;22;20194;-84
2022/01/25 09:22:21;;;;;;;86.03;32.93;;;0.40;99.90;;;;;;6316092;22;20201;-84
2022/01/25 09:24:46;;;;;;;90.60;36.20;;;0.30;99.90;;;;;;6315206;22;20184;-83
2022/01/25 09:27:12;;;;;;;85.93;37.57;;;0.10;99.90;;;;;;6318646;22;20154;-84
2022/01/25 09:29:38;;;;;;;80.70;34.60;;;0.30;99.90;;;;;;6315911;22;20235;-84
2022/01/25 09:32:04;;;;;;;85.93;36.40;;;0.00;99.90;;;;;;6317741;22;20151;-85
2022/01/25 09:34:30;;;;;;;84.07;36.27;;;0.10;99.90;;;;;;6318576;22;20196;-84
2022/01/25 09:36:55;;;;;;;93.13;36.17;;;0.20;99.90;;;;;;6317987;22;20152;-84
2022/01/25 09:39:21;;;;;;;96.03;37.73;;;0.20;99.90;;;;;;6316648;22;20485;-84
2022/01/25 09:41:48;;;;;;;87.80;36.47;;;0.20;99.90;;;;;;6317034;22;20143;-84
2022/01/25 09:44:15;;;;;;;93.87;38.73;;;0.20;99.90;;;;;;6317222;22;20651;-84
2022/01/25 09:46:42;;;;;;;91.87;38.47;;;0.30;99.90;;;;;;6317382;22;20151;-83
2022/01/25 09:49:09;;;;;;;93.83;36.53;;;0.40;99.90;;;;;;6317776;22;20155;-84
2022/01/25 09:51:38;;;;;;;94.30;38.90;;;0.40;99.90;;;;;;6317828;22;20150;-84
2022/01/25 09:54:04;;;;;;;88.57;36.37;;;0.50;99.90;;;;;;6317871;22;20191;-83
2022/01/25 09:56:31;;;;;;;85.57;35.97;;;0.70;99.90;;;;;;6316548;22;20272;-84
2022/01/25 09:58:57;;;;;;;85.07;37.43;;;0.60;99.90;;;;;;6316552;22;20493;-83
2022/01/25 10:01:30;;;;;;;82.83;36.03;;;0.70;99.90;;;;;;6316791;22;20144;-83
2022/01/25 10:03:58;;;;;;;89.90;37.20;;;0.60;99.90;;;;;;6316336;22;20516;-85
2022/01/25 10:06:29;;;;;;;86.97;39.17;;;0.70;99.90;;;;;;6316712;22;20159;-84
2022/01/25 10:08:54;;;;;;;85.07;37.87;;;0.70;99.90;;;;;;6318579;22;20479;-84
2022/01/25 10:11:23;;;;;;;83.20;35.43;;;0.70;99.90;;;;;;6318927;22;20220;-83
2022/01/25 10:13:54;;;;;;;79.37;34.47;;;0.90;99.90;;;;;;6318209;22;20165;-84
2022/01/25 10:16:32;;;;;;;79.37;34.37;;;0.60;99.90;;;;;;6317470;22;20179;-83
2022/01/25 10:19:03;;;;;;;78.43;34.03;;;0.60;99.90;;;;;;6317654;22;20220;-84
2022/01/25 10:21:41;;;;;;;80.33;33.93;;;0.70;99.90;;;;;;6318034;22;20132;-84
2022/01/25 10:24:17;;;;;;;81.93;34.07;;;0.70;99.90;;;;;;6316803;22;20176;-83
2022/01/25 10:26:48;;;;;;;78.13;33.83;;;0.80;99.90;;;;;;6318697;22;20477;-84
2022/01/25 10:29:23;;;;;;;80.00;33.77;;;0.80;99.90;;;;;;6317933;22;20140;-84
2022/01/25 10:32:22;;;;;;;76.73;34.33;;;0.80;99.90;;;;;;6317252;22;20151;-84
2022/01/25 10:34:49;;;;;;;74.40;32.53;;;0.80;99.90;;;;;;6321063;22;20206;-83
2022/01/25 10:37:16;;;;;;;74.83;33.23;;;0.90;99.90;;;;;;6318451;22;20144;-83
2022/01/25 10:39:48;;;;;;;76.60;33.93;;;0.90;99.90;;;;;;6320269;22;20167;-84
2022/01/25 10:42:26;;;;;;;78.20;33.00;;;0.80;99.90;;;;;;6331285;22;20132;-84
2022/01/25 10:44:56;;;;;;;75.40;33.90;;;0.90;99.90;;;;;;6334338;22;20152;-84
2022/01/25 10:47:49;;;;;;;84.70;34.30;;;0.90;99.90;;;;;;6324072;22;20143;-84
2022/01/25 10:50:22;;;;;;;74.13;32.73;;;0.80;99.90;;;;;;6320044;22;20133;-85
2022/01/25 10:53:07;;;;;;;76.17;34.23;;;0.90;99.90;;;;;;6318806;22;20293;-84
2022/01/25 10:55:36;;;;;;;76.17;32.27;;;1.00;99.90;;;;;;6317402;22;20164;-84
2022/01/25 10:58:04;;;;;;;73.13;33.27;;;1.00;99.90;;;;;;6318622;22;20143;-84
2022/01/25 11:00:36;;;;;;;78.10;33.77;;;1.00;99.90;;;;;;6317259;22;20159;-83
2022/01/25 11:03:03;;;;;;;77.53;33.43;;;1.10;99.90;;;;;;6317217;22;20171;-84
2022/01/25 11:05:38;;;;;;;75.50;32.43;;;1.10;99.90;;;;;;6317464;22;20151;-83
2022/01/25 11:08:12;;;;;;;77.17;34.07;;;1.20;99.90;;;;;;6318773;22;20135;-84
2022/01/25 11:10:46;;;;;;;73.23;34.10;;;1.30;99.90;;;;;;6316853;22;20162;-84
2022/01/25 11:13:33;;;;;;;71.70;33.73;;;1.10;99.90;;;;;;6318456;22;20179;-84
2022/01/25 11:16:02;;;;;;;83.70;34.97;;;1.10;99.90;;;;;;6318042;22;20172;-84
2022/01/25 11:18:30;;;;;;;81.93;34.50;;;1.10;99.90;;;;;;6317190;22;20593;-84
2022/01/25 11:20:58;;;;;;;71.23;32.83;;;1.20;99.90;;;;;;6319291;22;20144;-84
2022/01/25 11:23:24;;;;;;;71.60;32.17;;;1.20;99.90;;;;;;6318997;22;20178;-85
2022/01/25 11:25:50;;;;;;;84.10;34.73;;;1.30;99.90;;;;;;6319142;22;20167;-84
2022/01/25 11:28:16;;;;;;;76.10;34.47;;;1.30;99.90;;;;;;6318254;22;20663;-84
2022/01/25 11:30:43;;;;;;;70.93;32.53;;;1.30;99.90;;;;;;6319274;22;20156;-86
2022/01/25 11:33:11;;;;;;;72.80;32.33;;;1.40;99.90;;;;;;6318729;22;20186;-84
2022/01/25 11:35:38;;;;;;;76.23;33.57;;;1.40;99.90;;;;;;6318192;22;20251;-83
2022/01/25 11:38:05;;;;;;;72.50;32.20;;;1.40;99.90;;;;;;6317206;22;20148;-84
2022/01/25 11:40:38;;;;;;;71.23;32.30;;;1.50;99.90;;;;;;6319445;22;20148;-84
2022/01/25 11:43:36;;;;;;;75.53;33.13;;;1.50;99.90;;;;;;6323419;22;20609;-85
2022/01/25 11:46:06;;;;;;;72.53;32.93;;;1.50;99.90;;;;;;6321766;22;20174;-84
2022/01/25 11:48:39;;;;;;;74.50;32.93;;;1.60;99.90;;;;;;6320211;22;20159;-84
2022/01/25 11:51:11;;;;;;;72.63;31.83;;;1.70;99.90;;;;;;6318720;22;20144;-83
2022/01/25 11:53:40;;;;;;;70.63;30.87;;;1.90;99.90;;;;;;6316878;22;20187;-84
2022/01/25 11:56:08;;;;;;;72.03;33.20;;;1.70;99.90;;;;;;6316322;22;20183;-84
2022/01/25 11:58:35;;;;;;;71.43;33.37;;;1.70;99.90;;;;;;6316346;22;20168;-83
2022/01/25 12:01:07;;;;;;;75.67;33.33;;;1.60;99.90;;;;;;6315145;22;20148;-82
2022/01/25 12:03:40;;;;;;;66.43;31.47;;;1.50;99.90;;;;;;6317585;22;20168;-84
2022/01/25 12:06:19;;;;;;;72.53;31.87;;;1.50;99.90;;;;;;6317875;22;20140;-84
2022/01/25 12:09:07;;;;;;;68.10;31.63;;;1.60;99.90;;;;;;6316791;22;20195;-84
2022/01/25 12:11:51;;;;;;;70.30;32.93;;;1.60;99.90;;;;;;6318504;22;20133;-83
2022/01/25 12:14:22;;;;;;;74.63;32.87;;;1.60;99.90;;;;;;6318291;22;20172;-84
2022/01/25 12:16:59;;;;;;;74.73;32.33;;;1.90;99.90;;;;;;6318739;22;20163;-84
2022/01/25 12:19:31;;;;;;;76.47;32.27;;;1.70;99.90;;;;;;6316947;22;20155;-83
2022/01/25 12:21:59;;;;;;;71.67;32.63;;;2.20;99.90;;;;;;6318333;22;20156;-84
2022/01/25 12:24:32;;;;;;;69.90;31.80;;;1.90;99.90;;;;;;6317216;22;20209;-83
2022/01/25 12:29:41;;;;;;;84.80;34.43;;;2.00;99.90;;;;;;6324581;22;20189;-84
2022/01/25 12:32:27;;;;;;;73.50;33.30;;;2.00;99.90;;;;;;6315960;22;20152;-85
2022/01/25 12:35:06;;;;;;;68.90;32.33;;;2.10;99.90;;;;;;6318404;22;20161;-84
2022/01/25 12:37:56;;;;;;;66.57;29.83;;;2.30;99.90;;;;;;6318756;22;20152;-83
2022/01/25 12:40:26;;;;;;;61.63;29.27;;;2.40;99.90;;;;;;6302077;22;20148;-83
2022/01/25 12:42:58;;;;;;;69.53;31.87;;;2.20;99.90;;;;;;6316559;22;20160;-83
2022/01/25 12:45:27;;;;;;;72.13;31.93;;;2.20;99.90;;;;;;6316831;22;20149;-84
2022/01/25 12:47:58;;;;;;;69.90;31.90;;;2.20;99.90;;;;;;6316015;22;20153;-84
2022/01/25 12:50:25;;;;;;;71.90;32.80;;;2.30;99.90;;;;;;6316086;22;20228;-84
2022/01/25 12:52:51;;;;;;;73.23;33.20;;;2.20;99.90;;;;;;6315153;22;20304;-84
2022/01/25 12:55:24;;;;;;;69.50;33.13;;;2.20;99.90;;;;;;6317717;22;20173;-84
2022/01/25 12:57:52;;;;;;;67.77;31.00;;;2.10;99.90;;;;;;6317433;22;20193;-85
2022/01/25 13:00:18;;;;;;;66.30;30.27;;;2.30;99.90;;;;;;6317333;22;20148;-84
2022/01/25 13:02:44;;;;;;;58.93;28.67;;;2.40;99.90;;;;;;6317036;22;20172;-85
2022/01/25 13:05:19;;;;;;;66.23;29.67;;;2.40;99.90;;;;;;6319646;22;20170;-84
2022/01/25 13:07:45;;;;;;;66.53;30.20;;;2.40;99.90;;;;;;6319247;22;20160;-84
2022/01/25 13:10:26;;;;;;;65.37;29.87;;;2.50;99.90;;;;;;6318100;22;20156;-84
2022/01/25 13:12:57;;;;;;;63.70;30.70;;;2.50;99.90;;;;;;6318556;22;20198;-84
2022/01/25 13:15:53;;;;;;;66.93;30.30;;;2.50;99.90;;;;;;6319625;22;20159;-84
2022/01/25 13:18:18;;;;;;;70.87;31.60;;;2.50;99.90;;;;;;6317617;22;20128;-84
2022/01/25 13:20:47;;;;;;;66.27;32.60;;;2.50;99.90;;;;;;6316794;22;20208;-85
2022/01/25 13:23:13;;;;;;;71.33;32.07;;;2.50;99.90;;;;;;6315572;22;20174;-84
2022/01/25 13:25:53;;;;;;;65.33;30.47;;;2.50;99.90;;;;;;6319441;22;20168;-84
2022/01/25 13:30:58;;;;;;;65.60;31.93;;;2.80;99.90;;;;;;6330474;22;20144;-83
2022/01/25 13:33:23;;;;;;;63.07;30.23;;;2.90;99.90;;;;;;6321062;22;20176;-85
2022/01/25 13:35:53;;;;;;;63.90;31.23;;;3.40;99.90;;;;;;6327750;22;20172;-85
2022/01/25 13:38:26;;;;;;;66.53;31.87;;;2.90;99.90;;;;;;6321351;22;20224;-84
2022/01/25 13:46:10;;;;;;;59.37;30.27;;;2.70;99.90;;;;;;6319731;22;20144;-83
2022/01/25 13:48:36;;;;;;;69.07;30.63;;;3.00;99.90;;;;;;6317270;22;20534;-84
2022/01/25 13:51:06;;;;;;;59.43;30.10;;;2.90;99.90;;;;;;6318732;22;20149;-84
2022/01/25 13:53:32;;;;;;;62.93;29.53;;;3.40;99.90;;;;;;6319234;22;20191;-85
2022/01/25 13:56:00;;;;;;;60.17;29.30;;;3.10;99.90;;;;;;6319786;22;20174;-85
2022/01/25 13:58:32;;;;;;;69.60;31.90;;;3.20;99.90;;;;;;6317172;22;20205;-85
2022/01/25 14:01:00;;;;;;;63.47;30.87;;;3.10;99.90;;;;;;6318418;22;20549;-85
2022/01/25 14:03:32;;;;;;;62.23;29.83;;;3.10;99.90;;;;;;6318952;22;20164;-85
2022/01/25 14:05:58;;;;;;;64.73;30.37;;;3.20;99.90;;;;;;6318255;22;20491;-85
2022/01/25 14:08:39;;;;;;;67.47;30.93;;;3.10;99.90;;;;;;6318729;22;20152;-86
2022/01/25 14:11:27;;;;;;;60.53;29.97;;;3.10;99.90;;;;;;6319244;22;20145;-84
2022/01/25 14:24:35;;;;;;;61.97;29.53;;;3.40;99.90;;;;;;6318579;22;20200;-84
2022/01/25 14:27:19;;;;;;;66.57;30.80;;;3.50;99.90;;;;;;6319591;22;20155;-84
2022/01/25 14:29:45;;;;;;;64.53;29.93;;;3.40;99.90;;;;;;6316098;22;20144;-84
2022/01/25 14:32:11;;;;;;;64.43;30.53;;;3.30;99.90;;;;;;6317768;22;20150;-85
2022/01/25 14:34:36;;;;;;;61.93;30.90;;;3.20;99.90;;;;;;6318611;22;20539;-84
2022/01/25 14:37:11;;;;;;;65.63;30.73;;;3.20;99.90;;;;;;6318166;22;20140;-84
2022/01/25 14:39:41;;;;;;;64.40;30.87;;;3.40;99.90;;;;;;6318170;22;20137;-84
2022/01/25 14:42:11;;;;;;;65.60;30.67;;;3.20;99.90;;;;;;6318266;22;20602;-84
2022/01/25 14:44:43;;;;;;;61.23;29.83;;;3.20;99.90;;;;;;6318444;22;20172;-84
2022/01/25 14:47:13;;;;;;;64.97;31.53;;;3.20;99.90;;;;;;6317789;22;20152;-85
2022/01/25 14:49:46;;;;;;;66.87;31.07;;;3.20;99.90;;;;;;6316666;22;20229;-84
2022/01/25 14:52:12;;;;;;;62.83;29.90;;;3.20;99.90;;;;;;6318781;22;20137;-85
2022/01/25 14:54:42;;;;;;;69.70;32.30;;;3.10;99.90;;;;;;6317842;22;20634;-85
2022/01/25 14:57:13;;;;;;;66.13;31.07;;;3.10;99.90;;;;;;6318330;22;20207;-84
2022/01/25 14:59:47;;;;;;;65.37;29.93;;;3.10;99.90;;;;;;6316982;22;20190;-84
2022/01/25 15:02:15;;;;;;;69.63;31.87;;;3.00;99.90;;;;;;6318056;22;20137;-85
2022/01/25 15:04:48;;;;;;;62.90;30.90;;;3.00;99.90;;;;;;6317283;22;20150;-85
2022/01/25 15:07:20;;;;;;;61.80;32.10;;;3.00;99.90;;;;;;6317365;22;20513;-84
2022/01/25 15:09:49;;;;;;;67.43;31.47;;;2.90;99.90;;;;;;6316160;22;20590;-84